createdAt,value
2023-04-04T00:00:19.715Z,70.00
2023-04-04T00:02:46.897Z,70.10
2023-04-04T00:05:14.108Z,70.00
2023-04-04T00:07:41.325Z,69.90
2023-04-04T00:10:08.977Z,70.40
2023-04-04T00:12:36.649Z,69.70
2023-04-04T00:15:04.526Z,69.90
2023-04-04T00:17:31.493Z,70.70
2023-04-04T00:19:58.680Z,71.00
2023-04-04T00:22:26.126Z,71.00
2023-04-04T00:24:53.150Z,70.50
2023-04-04T00:27:20.392Z,70.60
2023-04-04T00:29:47.550Z,70.40
2023-04-04T00:32:14.876Z,71.20
2023-04-04T00:34:42.126Z,71.20
2023-04-04T00:37:12.334Z,71.00
2023-04-04T00:39:39.324Z,71.30
2023-04-04T00:42:06.779Z,71.30
2023-04-04T00:44:36.522Z,72.10
2023-04-04T00:47:04.859Z,71.40
2023-04-04T00:49:31.963Z,70.90
2023-04-04T00:51:59.429Z,71.40
2023-04-04T00:54:26.613Z,71.60
2023-04-04T00:56:55.594Z,70.80
2023-04-04T00:59:26.308Z,72.10
2023-04-04T01:01:53.917Z,71.40
2023-04-04T01:04:21.305Z,70.50
2023-04-04T01:06:49.123Z,71.70
2023-04-04T01:09:16.848Z,70.90
2023-04-04T01:11:44.659Z,71.90
2023-04-04T01:14:11.806Z,73.30
2023-04-04T01:16:41.311Z,72.40
2023-04-04T01:19:11.716Z,73.20
2023-04-04T01:21:40.561Z,73.30
2023-04-04T01:24:10.298Z,73.60
2023-04-04T01:26:43.578Z,73.40
2023-04-04T01:29:11.098Z,73.80
2023-04-04T01:31:46.672Z,73.70
2023-04-04T01:34:29.670Z,73.00
2023-04-04T01:37:04.221Z,74.00
2023-04-04T01:39:53.090Z,73.40
2023-04-04T01:42:21.528Z,74.30
2023-04-04T01:44:57.142Z,74.50
2023-04-04T01:47:31.160Z,74.60
2023-04-04T01:49:58.278Z,74.40
2023-04-04T01:52:25.887Z,74.90
2023-04-04T01:54:52.977Z,74.50
2023-04-04T01:57:20.181Z,74.40
2023-04-04T01:59:47.501Z,74.30
2023-04-04T02:02:14.977Z,74.30
2023-04-04T02:04:42.214Z,74.50
2023-04-04T02:07:09.400Z,74.10
2023-04-04T02:09:38.422Z,74.20
2023-04-04T02:12:05.849Z,74.40
2023-04-04T02:14:32.912Z,74.20
2023-04-04T02:17:00.560Z,74.90
2023-04-04T02:19:27.716Z,74.80
2023-04-04T02:21:54.711Z,75.20
2023-04-04T02:24:22.273Z,74.90
2023-04-04T02:26:49.405Z,75.00
2023-04-04T02:29:16.899Z,75.90
2023-04-04T02:31:44.242Z,75.60
2023-04-04T02:34:11.739Z,74.40
2023-04-04T02:36:39.187Z,74.40
2023-04-04T02:39:06.484Z,73.90
2023-04-04T02:41:33.678Z,74.50
2023-04-04T02:44:00.964Z,75.60
2023-04-04T02:46:28.034Z,74.20
2023-04-04T02:49:02.013Z,73.90
2023-04-04T02:51:31.192Z,73.50
2023-04-04T02:53:58.953Z,72.90
2023-04-04T02:56:33.044Z,73.20
2023-04-04T02:59:00.262Z,73.10
2023-04-04T03:01:27.559Z,73.30
2023-04-04T03:03:55.215Z,73.00
2023-04-04T03:06:23.407Z,73.30
2023-04-04T03:08:50.570Z,73.30
2023-04-04T03:11:20.049Z,72.50
2023-04-04T03:13:51.194Z,72.70
2023-04-04T03:16:20.888Z,73.20
2023-04-04T03:18:51.129Z,73.30
2023-04-04T03:21:21.026Z,73.70
2023-04-04T03:23:48.034Z,74.70
2023-04-04T03:26:15.377Z,73.80
2023-04-04T03:28:42.425Z,73.80
2023-04-04T03:31:11.341Z,73.50
2023-04-04T03:33:43.058Z,74.70
2023-04-04T03:36:12.737Z,75.50
2023-04-04T03:38:39.960Z,75.30
2023-04-04T03:41:09.227Z,75.10
2023-04-04T03:43:36.407Z,74.10
2023-04-04T03:46:05.427Z,76.50
2023-04-04T03:48:33.711Z,76.30
2023-04-04T03:51:04.717Z,75.60
2023-04-04T03:53:32.241Z,76.10
2023-04-04T03:56:00.258Z,76.60
2023-04-04T03:58:29.070Z,75.30
2023-04-04T04:00:56.540Z,75.70
2023-04-04T04:03:26.398Z,77.70
2023-04-04T04:05:53.800Z,77.50
2023-04-04T04:08:21.640Z,75.90
2023-04-04T04:10:50.241Z,76.60
2023-04-04T04:13:17.310Z,77.30
2023-04-04T04:15:44.625Z,76.80
2023-04-04T04:18:17.500Z,77.70
2023-04-04T04:20:44.624Z,78.20
2023-04-04T04:23:12.424Z,78.90
2023-04-04T04:25:40.446Z,78.30
2023-04-04T04:28:15.464Z,77.90
2023-04-04T04:30:42.847Z,78.50
2023-04-04T04:33:10.616Z,79.80
2023-04-04T04:35:47.791Z,84.50
2023-04-04T04:38:15.036Z,83.00
2023-04-04T04:40:43.018Z,83.60
2023-04-04T04:43:17.734Z,83.10
2023-04-04T04:45:45.541Z,83.50
2023-04-04T04:48:13.286Z,83.20
2023-04-04T04:50:47.285Z,85.20
2023-04-04T04:53:18.591Z,86.70
2023-04-04T04:55:47.386Z,83.60
2023-04-04T04:58:17.084Z,84.50
2023-04-04T05:00:47.719Z,84.50
2023-04-04T05:03:14.833Z,84.50
2023-04-04T05:05:48.114Z,85.00
2023-04-04T05:08:16.277Z,85.70
2023-04-04T05:10:55.238Z,85.80
2023-04-04T05:13:26.392Z,87.30
2023-04-04T05:15:53.631Z,84.90
2023-04-04T05:18:21.483Z,83.30
2023-04-04T05:20:54.338Z,84.90
2023-04-04T05:23:23.961Z,87.90
2023-04-04T05:25:53.469Z,86.00
2023-04-04T05:28:23.751Z,82.80
2023-04-04T05:30:53.843Z,83.10
2023-04-04T05:33:25.277Z,80.90
2023-04-04T05:36:03.170Z,80.60
2023-04-04T05:38:33.271Z,80.50
2023-04-04T05:41:00.401Z,80.40
2023-04-04T05:43:27.853Z,78.10
2023-04-04T05:46:01.203Z,76.70
2023-04-04T05:48:34.475Z,75.70
2023-04-04T05:51:02.202Z,74.80
2023-04-04T05:53:39.949Z,73.50
2023-04-04T05:56:07.737Z,73.90
2023-04-04T05:58:35.150Z,73.80
2023-04-04T06:01:09.019Z,72.50
2023-04-04T06:03:36.994Z,71.00
2023-04-04T06:06:08.391Z,71.10
2023-04-04T06:08:46.633Z,70.20
2023-04-04T06:11:19.942Z,69.40
2023-04-04T06:13:47.497Z,69.40
2023-04-04T06:16:17.719Z,68.20
2023-04-04T06:18:44.804Z,69.10
2023-04-04T06:21:13.289Z,68.80
2023-04-04T06:23:41.221Z,68.20
2023-04-04T06:26:08.436Z,67.60
2023-04-04T06:28:36.833Z,67.40
2023-04-04T06:31:07.080Z,67.00
2023-04-04T06:33:34.293Z,63.20
2023-04-04T06:36:01.660Z,60.40
2023-04-04T06:38:29.867Z,57.40
2023-04-04T06:41:00.292Z,55.00
2023-04-04T06:43:29.307Z,54.70
2023-04-04T06:45:58.275Z,54.50
2023-04-04T06:48:25.427Z,53.50
2023-04-04T06:50:52.948Z,51.50
2023-04-04T06:53:20.075Z,52.90
2023-04-04T06:55:47.348Z,51.90
2023-04-04T06:58:14.427Z,51.60
2023-04-04T07:00:41.747Z,51.00
2023-04-04T07:03:09.113Z,51.40
2023-04-04T07:05:40.004Z,51.50
2023-04-04T07:08:07.177Z,50.70
2023-04-04T07:10:34.332Z,48.20
2023-04-04T07:13:01.633Z,47.00
2023-04-04T07:15:28.650Z,46.10
2023-04-04T07:17:55.793Z,46.10
2023-04-04T07:20:23.543Z,46.50
2023-04-04T07:22:50.930Z,44.60
2023-04-04T07:25:18.028Z,43.60
2023-04-04T07:27:45.165Z,43.90
2023-04-04T07:30:12.965Z,44.60
2023-04-04T07:32:40.138Z,41.40
2023-04-04T07:35:08.152Z,41.60
2023-04-04T07:37:38.116Z,40.50
2023-04-04T07:40:08.762Z,39.70
2023-04-04T07:42:36.004Z,40.30
2023-04-04T07:45:03.274Z,40.00
2023-04-04T07:47:30.327Z,39.90
2023-04-04T07:49:57.375Z,39.30
2023-04-04T07:52:24.513Z,38.80
2023-04-04T07:54:52.837Z,39.30
2023-04-04T07:57:19.853Z,39.20
2023-04-04T07:59:47.328Z,40.40
2023-04-04T08:02:14.488Z,39.40
2023-04-04T08:04:41.672Z,39.40
2023-04-04T08:07:08.966Z,39.70
2023-04-04T08:09:36.679Z,39.40
2023-04-04T08:12:06.190Z,41.00
2023-04-04T08:14:33.869Z,40.20
2023-04-04T08:17:01.507Z,39.80
2023-04-04T08:19:28.528Z,40.30
2023-04-04T08:21:55.988Z,41.50
2023-04-04T08:24:23.112Z,40.70
2023-04-04T08:26:58.186Z,40.90
2023-04-04T08:29:33.058Z,39.50
2023-04-04T08:32:01.105Z,37.90
2023-04-04T08:34:28.768Z,36.80
2023-04-04T08:36:57.040Z,37.30
2023-04-04T08:39:24.095Z,37.10
2023-04-04T08:42:01.727Z,37.30
2023-04-04T08:44:30.118Z,38.10
2023-04-04T08:46:59.153Z,40.50
2023-04-04T08:49:28.344Z,40.30
2023-04-04T08:51:57.475Z,40.80
2023-04-04T08:54:26.362Z,44.10
2023-04-04T08:56:53.493Z,43.60
2023-04-04T08:59:21.618Z,44.80
2023-04-04T09:01:49.328Z,44.10
2023-04-04T09:04:16.855Z,44.90
2023-04-04T09:06:44.237Z,45.00
2023-04-04T09:09:11.974Z,45.00
2023-04-04T09:11:40.268Z,44.30
2023-04-04T09:14:07.632Z,44.60
2023-04-04T09:16:35.093Z,44.80
2023-04-04T09:19:02.260Z,45.90
2023-04-04T09:21:33.214Z,46.40
2023-04-04T09:24:01.774Z,46.40
2023-04-04T09:26:28.952Z,47.90
2023-04-04T09:28:56.069Z,46.00
2023-04-04T09:31:24.922Z,47.00
2023-04-04T09:33:52.201Z,47.50
2023-04-04T09:36:19.450Z,46.80
2023-04-04T09:38:49.034Z,46.90
2023-04-04T09:41:18.865Z,47.20
2023-04-04T09:43:46.884Z,45.30
2023-04-04T09:46:15.896Z,45.90
2023-04-04T09:48:50.373Z,46.10
2023-04-04T09:51:17.434Z,46.20
2023-04-04T09:53:48.537Z,44.60
2023-04-04T09:56:15.865Z,44.30
2023-04-04T09:59:00.760Z,45.60
2023-04-04T10:01:31.701Z,46.70
2023-04-04T10:03:58.930Z,43.90
2023-04-04T10:06:27.610Z,45.90
2023-04-04T10:08:56.694Z,45.60
2023-04-04T10:11:33.696Z,44.90
2023-04-04T10:14:03.779Z,45.60
2023-04-04T10:16:34.600Z,46.10
2023-04-04T10:19:02.695Z,47.00
2023-04-04T10:21:30.138Z,44.70
2023-04-04T10:24:00.357Z,47.00
2023-04-04T10:26:27.579Z,46.70
2023-04-04T10:28:55.056Z,45.70
2023-04-04T10:31:26.373Z,45.40
2023-04-04T10:34:12.932Z,45.90
2023-04-04T10:37:08.144Z,47.00
2023-04-04T10:39:36.370Z,47.10
2023-04-04T10:42:06.860Z,46.10
2023-04-04T10:44:38.981Z,46.50
2023-04-04T10:47:15.839Z,45.50
2023-04-04T10:49:45.368Z,45.10
2023-04-04T10:52:14.742Z,45.50
2023-04-04T10:54:43.955Z,43.60
2023-04-04T10:57:12.860Z,44.80
2023-04-04T11:00:02.264Z,44.10
2023-04-04T11:02:53.087Z,45.80
2023-04-04T11:05:47.319Z,46.90
2023-04-04T11:08:19.961Z,45.20
2023-04-04T11:10:49.526Z,44.20
2023-04-04T11:13:22.686Z,43.90
2023-04-04T11:16:01.058Z,45.80
2023-04-04T11:18:45.351Z,45.70
2023-04-04T11:21:24.133Z,43.70
2023-04-04T11:23:52.284Z,42.90
2023-04-04T11:26:35.531Z,44.00
2023-04-04T11:29:04.592Z,44.90
2023-04-04T11:31:50.873Z,45.40
2023-04-04T11:34:33.695Z,44.70
2023-04-04T11:37:18.107Z,43.20
2023-04-04T11:39:57.486Z,43.00
2023-04-04T11:42:25.065Z,44.50
2023-04-04T11:44:52.086Z,44.40
2023-04-04T11:47:23.630Z,43.60
2023-04-04T11:49:52.510Z,43.90
2023-04-04T11:52:19.747Z,42.50
2023-04-04T11:54:48.128Z,45.80
2023-04-04T11:57:17.169Z,46.00
2023-04-04T11:59:47.518Z,46.90
2023-04-04T12:02:19.516Z,45.10
2023-04-04T12:04:48.426Z,43.80
2023-04-04T12:07:17.899Z,43.60
2023-04-04T12:09:45.423Z,44.20
2023-04-04T12:12:16.483Z,44.60
2023-04-04T12:14:44.093Z,43.40
2023-04-04T12:17:11.730Z,40.80
2023-04-04T12:19:40.020Z,45.40
2023-04-04T12:22:08.604Z,42.00
2023-04-04T12:24:36.876Z,44.60
2023-04-04T12:27:05.110Z,44.00
2023-04-04T12:29:37.681Z,43.50
2023-04-04T12:32:06.488Z,44.80
2023-04-04T12:34:35.331Z,46.00
2023-04-04T12:37:03.882Z,43.50
2023-04-04T12:39:31.970Z,42.20
2023-04-04T12:42:02.668Z,42.80
2023-04-04T12:44:39.444Z,43.60
2023-04-04T12:47:08.405Z,41.00
2023-04-04T12:49:55.307Z,44.50
2023-04-04T12:52:32.668Z,42.10
2023-04-04T12:55:08.887Z,44.40
2023-04-04T12:57:38.330Z,43.70
2023-04-04T13:00:08.293Z,43.40
2023-04-04T13:02:36.997Z,41.40
2023-04-04T13:05:07.439Z,40.90
2023-04-04T13:07:43.525Z,43.20
2023-04-04T13:10:14.812Z,41.70
2023-04-04T13:13:00.281Z,43.40
2023-04-04T13:15:49.414Z,42.80
2023-04-04T13:18:19.361Z,41.20
2023-04-04T13:20:46.541Z,40.50
2023-04-04T13:23:14.318Z,42.90
2023-04-04T13:25:41.887Z,43.80
2023-04-04T13:28:11.541Z,43.20
2023-04-04T13:30:43.604Z,44.00
2023-04-04T13:33:11.391Z,41.60
2023-04-04T13:35:39.320Z,42.40
2023-04-04T13:38:06.989Z,42.30
2023-04-04T13:40:34.144Z,41.20
2023-04-04T13:43:01.115Z,44.40
2023-04-04T13:45:28.249Z,43.30
2023-04-04T13:47:55.338Z,45.00
2023-04-04T13:50:23.003Z,44.20
2023-04-04T13:52:54.550Z,45.00
2023-04-04T13:55:22.081Z,43.70
2023-04-04T13:57:49.139Z,43.60
2023-04-04T14:00:17.172Z,43.20
2023-04-04T14:02:44.380Z,44.80
2023-04-04T14:05:12.079Z,45.30
2023-04-04T14:07:39.134Z,45.50
2023-04-04T14:10:07.125Z,46.00
2023-04-04T14:12:34.656Z,44.00
2023-04-04T14:15:01.693Z,47.00
2023-04-04T14:17:28.787Z,44.20
2023-04-04T14:19:56.316Z,45.00
2023-04-04T14:22:23.489Z,44.80
2023-04-04T14:24:50.587Z,46.40
2023-04-04T14:27:17.827Z,44.60
2023-04-04T14:29:44.844Z,43.90
2023-04-04T14:32:12.002Z,45.00
2023-04-04T14:34:39.067Z,43.60
2023-04-04T14:37:06.528Z,44.40
2023-04-04T14:39:33.720Z,46.00
2023-04-04T14:42:00.858Z,44.00
2023-04-04T14:44:28.409Z,44.10
2023-04-04T14:46:55.581Z,45.50
2023-04-04T14:49:22.864Z,45.70
2023-04-04T14:51:52.144Z,47.60
2023-04-04T14:54:19.332Z,47.10
2023-04-04T14:56:47.131Z,46.10
2023-04-04T14:59:14.285Z,46.00
2023-04-04T15:01:41.709Z,47.30
2023-04-04T15:04:09.284Z,45.30
2023-04-04T15:06:38.160Z,47.00
2023-04-04T15:09:06.909Z,47.50
2023-04-04T15:11:35.845Z,48.00
2023-04-04T15:14:03.174Z,46.50
2023-04-04T15:16:33.229Z,44.90
2023-04-04T15:19:01.032Z,45.70
2023-04-04T15:21:28.933Z,47.20
2023-04-04T15:23:56.295Z,47.30
2023-04-04T15:26:24.034Z,48.60
2023-04-04T15:28:51.165Z,48.30
2023-04-04T15:31:18.278Z,47.30
2023-04-04T15:33:45.531Z,49.30
2023-04-04T15:36:12.719Z,49.10
2023-04-04T15:38:40.613Z,48.60
2023-04-04T15:41:09.725Z,48.80
2023-04-04T15:43:37.433Z,48.50
2023-04-04T15:46:05.064Z,47.70
2023-04-04T15:48:32.568Z,48.90
2023-04-04T15:51:03.274Z,49.20
2023-04-04T15:53:31.502Z,49.90
2023-04-04T15:55:59.349Z,49.60
2023-04-04T15:58:27.055Z,48.10
2023-04-04T16:00:55.768Z,48.40
2023-04-04T16:03:24.611Z,49.00
2023-04-04T16:05:51.882Z,50.50
2023-04-04T16:08:19.123Z,50.40
2023-04-04T16:10:46.402Z,51.10
2023-04-04T16:13:14.249Z,49.80
2023-04-04T16:15:41.469Z,49.30
2023-04-04T16:18:08.872Z,48.50
2023-04-04T16:20:36.294Z,49.60
2023-04-04T16:23:03.483Z,50.20
2023-04-04T16:25:30.664Z,50.20
2023-04-04T16:27:57.816Z,49.10
2023-04-04T16:30:24.933Z,50.90
2023-04-04T16:32:52.197Z,50.70
2023-04-04T16:35:19.360Z,50.10
2023-04-04T16:37:46.493Z,51.10
2023-04-04T16:40:14.868Z,51.00
2023-04-04T16:42:42.628Z,50.20
2023-04-04T16:45:10.524Z,51.30
2023-04-04T16:47:37.835Z,51.80
2023-04-04T16:50:06.661Z,51.10
2023-04-04T16:52:33.889Z,51.10
2023-04-04T16:55:01.005Z,50.50
2023-04-04T16:57:28.135Z,51.30
2023-04-04T16:59:55.292Z,51.20
2023-04-04T17:02:22.594Z,52.20
2023-04-04T17:04:49.810Z,52.70
2023-04-04T17:07:17.102Z,50.90
2023-04-04T17:09:45.119Z,51.50
2023-04-04T17:12:14.053Z,51.90
2023-04-04T17:14:41.198Z,52.40
2023-04-04T17:17:08.887Z,52.20
2023-04-04T17:19:37.305Z,52.80
2023-04-04T17:22:04.545Z,54.50
2023-04-04T17:24:31.919Z,53.20
2023-04-04T17:27:00.689Z,52.80
2023-04-04T17:29:28.042Z,53.10
2023-04-04T17:31:56.767Z,52.90
2023-04-04T17:34:24.251Z,53.50
2023-04-04T17:36:52.810Z,52.30
2023-04-04T17:39:20.041Z,53.40
2023-04-04T17:41:48.190Z,53.90
2023-04-04T17:44:17.264Z,53.10
2023-04-04T17:46:45.223Z,54.40
2023-04-04T17:49:12.762Z,54.80
2023-04-04T17:51:39.786Z,54.40
2023-04-04T17:54:06.982Z,54.00
2023-04-04T17:56:34.081Z,54.60
2023-04-04T17:59:01.755Z,53.90
2023-04-04T18:01:29.538Z,54.90
2023-04-04T18:03:58.106Z,55.40
2023-04-04T18:06:25.246Z,55.20
2023-04-04T18:08:52.443Z,56.10
2023-04-04T18:11:19.537Z,56.00
2023-04-04T18:13:47.218Z,56.70
2023-04-04T18:16:14.544Z,57.30
2023-04-04T18:18:41.837Z,57.00
2023-04-04T18:21:09.563Z,56.40
2023-04-04T18:23:37.752Z,57.10
2023-04-04T18:26:04.875Z,57.30
2023-04-04T18:28:31.914Z,57.30
2023-04-04T18:30:59.632Z,58.50
2023-04-04T18:33:28.049Z,58.00
2023-04-04T18:35:55.638Z,57.90
2023-04-04T18:38:25.356Z,58.50
2023-04-04T18:40:52.976Z,59.40
2023-04-04T18:43:20.051Z,59.10
2023-04-04T18:45:47.213Z,59.20
2023-04-04T18:48:14.523Z,59.20
2023-04-04T18:50:42.076Z,59.10
2023-04-04T18:53:10.020Z,59.30
2023-04-04T18:55:37.469Z,59.10
2023-04-04T18:58:04.753Z,59.30
2023-04-04T19:00:32.155Z,59.60
2023-04-04T19:02:59.604Z,59.70
2023-04-04T19:05:28.317Z,59.00
2023-04-04T19:07:56.217Z,60.60
2023-04-04T19:10:24.001Z,60.00
2023-04-04T19:12:51.163Z,60.80
2023-04-04T19:15:18.827Z,60.60
2023-04-04T19:17:47.578Z,61.20
2023-04-04T19:20:14.949Z,61.70
2023-04-04T19:22:42.327Z,60.30
2023-04-04T19:25:09.637Z,60.00
2023-04-04T19:27:36.980Z,60.50
2023-04-04T19:30:33.892Z,61.30
2023-04-04T19:33:02.566Z,61.40
2023-04-04T19:36:07.413Z,61.50
2023-04-04T19:38:37.255Z,61.30
2023-04-04T19:41:13.113Z,62.10
2023-04-04T19:43:43.254Z,60.90
2023-04-04T19:46:14.296Z,61.50
2023-04-04T19:48:43.951Z,61.00
2023-04-04T19:51:20.019Z,60.80
2023-04-04T19:53:49.230Z,61.10
2023-04-04T19:56:18.211Z,61.50
2023-04-04T19:58:46.053Z,61.30
2023-04-04T20:01:20.984Z,60.90
2023-04-04T20:03:48.877Z,61.50
2023-04-04T20:06:27.776Z,61.30
2023-04-04T20:08:56.473Z,61.50
2023-04-04T20:11:35.141Z,62.10
2023-04-04T20:14:07.524Z,61.70
2023-04-04T20:16:35.255Z,62.40
2023-04-04T20:19:06.152Z,62.40
2023-04-04T20:21:35.780Z,61.80
2023-04-04T20:24:08.525Z,62.80
2023-04-04T20:26:36.202Z,62.60
2023-04-04T20:29:06.821Z,61.60
2023-04-04T20:31:38.360Z,61.30
2023-04-04T20:34:07.502Z,61.30
2023-04-04T20:36:39.984Z,61.90
2023-04-04T20:39:43.998Z,61.30
2023-04-04T20:42:18.810Z,61.30
2023-04-04T20:44:47.209Z,61.30
2023-04-04T20:47:42.375Z,61.70
2023-04-04T20:50:17.175Z,62.50
2023-04-04T20:53:01.821Z,62.90
2023-04-04T20:55:30.749Z,62.10
2023-04-04T20:58:09.840Z,63.20
2023-04-04T21:00:40.930Z,63.20
2023-04-04T21:03:23.266Z,62.80
2023-04-04T21:05:51.255Z,63.30
2023-04-04T21:08:35.874Z,63.00
2023-04-04T21:11:04.021Z,63.30
2023-04-04T21:13:36.776Z,63.80
2023-04-04T21:16:09.204Z,64.40
2023-04-04T21:18:37.569Z,64.00
2023-04-04T21:21:10.834Z,65.20
2023-04-04T21:23:41.274Z,65.40
2023-04-04T21:26:10.147Z,66.90
2023-04-04T21:28:41.584Z,66.30
2023-04-04T21:31:13.770Z,66.70
2023-04-04T21:33:43.651Z,67.30
2023-04-04T21:36:27.327Z,67.90
2023-04-04T21:38:57.151Z,68.20
2023-04-04T21:41:28.690Z,68.20
2023-04-04T21:43:58.555Z,68.40
2023-04-04T21:46:27.797Z,69.50
2023-04-04T21:48:55.744Z,69.60
2023-04-04T21:51:22.946Z,69.70
2023-04-04T21:53:51.084Z,70.80
2023-04-04T21:56:18.804Z,70.90
2023-04-04T21:58:46.146Z,70.30
2023-04-04T22:01:13.419Z,70.70
2023-04-04T22:03:40.782Z,70.50
2023-04-04T22:06:08.037Z,71.20
2023-04-04T22:08:35.184Z,71.30
2023-04-04T22:11:03.382Z,70.70
2023-04-04T22:13:33.466Z,71.40
2023-04-04T22:16:01.974Z,72.00
2023-04-04T22:18:30.845Z,73.00
2023-04-04T22:21:03.129Z,72.30
2023-04-04T22:23:35.789Z,72.30
2023-04-04T22:26:07.512Z,72.50
2023-04-04T22:28:35.859Z,72.50
2023-04-04T22:31:03.870Z,72.60
2023-04-04T22:33:31.253Z,74.50
2023-04-04T22:35:59.263Z,75.80
2023-04-04T22:38:27.142Z,74.60
2023-04-04T22:40:54.945Z,75.60
2023-04-04T22:43:22.542Z,74.20
2023-04-04T22:45:49.865Z,75.60
2023-04-04T22:48:17.357Z,75.70
2023-04-04T22:50:45.174Z,74.50
2023-04-04T22:53:13.207Z,74.00
2023-04-04T22:55:41.177Z,74.20
2023-04-04T22:58:08.594Z,74.20
2023-04-04T23:00:36.114Z,74.40
2023-04-04T23:03:04.201Z,74.70
2023-04-04T23:05:31.303Z,73.90
2023-04-04T23:08:02.582Z,74.50
2023-04-04T23:10:30.556Z,74.70
2023-04-04T23:12:57.848Z,74.80
2023-04-04T23:15:25.186Z,75.30
2023-04-04T23:17:52.338Z,75.00
2023-04-04T23:20:19.675Z,75.30
2023-04-04T23:22:46.874Z,75.10
2023-04-04T23:25:13.991Z,75.40
2023-04-04T23:27:41.293Z,75.90
2023-04-04T23:30:09.862Z,76.10
2023-04-04T23:32:37.041Z,76.70
2023-04-04T23:35:04.267Z,76.60
2023-04-04T23:37:31.383Z,76.90
2023-04-04T23:39:58.482Z,76.70
2023-04-04T23:42:25.681Z,76.40
2023-04-04T23:44:52.706Z,76.40
2023-04-04T23:47:20.419Z,76.70
2023-04-04T23:49:47.412Z,77.00
2023-04-04T23:52:14.500Z,76.60
2023-04-04T23:54:41.642Z,77.20
2023-04-04T23:57:08.813Z,77.00
2023-04-04T23:59:36.290Z,76.50
